sensor_id;sensor_type;location;lat;lon;timestamp;pressure;altitude;pressure_sealevel;temperature;humidity
11345;BME280;5727;42.600;23.028;2023-07-20T00:00:03;93425.28;;;23.97;89.54
11345;BME280;5727;42.600;23.028;2023-07-20T00:02:32;93429.88;;;23.97;89.67
11345;BME280;5727;42.600;23.028;2023-07-20T00:04:58;93423.84;;;23.93;89.08
11345;BME280;5727;42.600;23.028;2023-07-20T00:07:25;93429.69;;;23.88;89.89
11345;BME280;5727;42.600;23.028;2023-07-20T00:09:52;93431.88;;;23.93;90.13
11345;BME280;5727;42.600;23.028;2023-07-20T00:12:18;93423.75;;;23.96;90.28
11345;BME280;5727;42.600;23.028;2023-07-20T00:14:45;93419.97;;;23.94;90.17
11345;BME280;5727;42.600;23.028;2023-07-20T00:17:12;93411.56;;;23.95;90.46
11345;BME280;5727;42.600;23.028;2023-07-20T00:19:40;93416.47;;;23.81;91.19
11345;BME280;5727;42.600;23.028;2023-07-20T00:22:07;93410.63;;;23.86;91.63
11345;BME280;5727;42.600;23.028;2023-07-20T00:24:34;93402.94;;;23.88;90.62
11345;BME280;5727;42.600;23.028;2023-07-20T00:27:01;93402.84;;;23.91;89.75
11345;BME280;5727;42.600;23.028;2023-07-20T00:29:28;93408.78;;;23.83;88.79
11345;BME280;5727;42.600;23.028;2023-07-20T00:31:54;93401.47;;;23.67;90.58
11345;BME280;5727;42.600;23.028;2023-07-20T00:34:21;93411.75;;;23.69;90.48
11345;BME280;5727;42.600;23.028;2023-07-20T00:36:49;93410.66;;;23.66;91.39
11345;BME280;5727;42.600;23.028;2023-07-20T00:39:16;93411.25;;;23.74;91.90
11345;BME280;5727;42.600;23.028;2023-07-20T00:41:43;93404.41;;;23.73;92.74
11345;BME280;5727;42.600;23.028;2023-07-20T00:44:09;93404.84;;;23.51;94.40
11345;BME280;5727;42.600;23.028;2023-07-20T00:46:36;93397.59;;;23.32;94.37
11345;BME280;5727;42.600;23.028;2023-07-20T00:49:03;93396.16;;;23.28;95.20
11345;BME280;5727;42.600;23.028;2023-07-20T00:51:31;93384.97;;;23.13;97.19
11345;BME280;5727;42.600;23.028;2023-07-20T00:53:59;93374.28;;;23.13;97.29
11345;BME280;5727;42.600;23.028;2023-07-20T00:56:26;93386.75;;;23.00;98.49
11345;BME280;5727;42.600;23.028;2023-07-20T00:58:53;93381.41;;;23.00;98.49
11345;BME280;5727;42.600;23.028;2023-07-20T01:01:20;93385.66;;;22.78;99.25
11345;BME280;5727;42.600;23.028;2023-07-20T01:03:47;93374.84;;;22.85;100.00
11345;BME280;5727;42.600;23.028;2023-07-20T01:06:24;93375.19;;;22.87;100.00
11345;BME280;5727;42.600;23.028;2023-07-20T01:09:01;93381.63;;;22.90;100.00
11345;BME280;5727;42.600;23.028;2023-07-20T01:11:36;93390.59;;;22.99;99.25
11345;BME280;5727;42.600;23.028;2023-07-20T01:14:05;93394.00;;;23.00;99.16
11345;BME280;5727;42.600;23.028;2023-07-20T01:16:32;93398.91;;;23.05;99.03
11345;BME280;5727;42.600;23.028;2023-07-20T01:18:59;93382.78;;;23.08;99.04
11345;BME280;5727;42.600;23.028;2023-07-20T01:21:32;93386.69;;;23.04;99.38
11345;BME280;5727;42.600;23.028;2023-07-20T01:24:24;93392.31;;;23.09;99.87
11345;BME280;5727;42.600;23.028;2023-07-20T01:27:15;93391.16;;;23.10;99.56
11345;BME280;5727;42.600;23.028;2023-07-20T01:30:10;93388.47;;;23.10;98.40
11345;BME280;5727;42.600;23.028;2023-07-20T01:32:43;93385.13;;;23.06;98.29
11345;BME280;5727;42.600;23.028;2023-07-20T01:35:11;93387.44;;;23.04;98.35
11345;BME280;5727;42.600;23.028;2023-07-20T01:37:41;93382.09;;;23.04;98.38
11345;BME280;5727;42.600;23.028;2023-07-20T01:40:11;93392.94;;;22.97;99.12
11345;BME280;5727;42.600;23.028;2023-07-20T01:42:43;93387.09;;;22.83;100.00
11345;BME280;5727;42.600;23.028;2023-07-20T01:45:10;93389.06;;;22.59;100.00
11345;BME280;5727;42.600;23.028;2023-07-20T01:47:37;93390.53;;;22.60;100.00
11345;BME280;5727;42.600;23.028;2023-07-20T01:50:06;93391.31;;;22.60;100.00
11345;BME280;5727;42.600;23.028;2023-07-20T01:52:33;93387.75;;;22.67;100.00
11345;BME280;5727;42.600;23.028;2023-07-20T01:55:00;93386.59;;;22.68;100.00
11345;BME280;5727;42.600;23.028;2023-07-20T01:57:27;93389.06;;;22.59;100.00
11345;BME280;5727;42.600;23.028;2023-07-20T01:59:53;93368.44;;;22.59;100.00
11345;BME280;5727;42.600;23.028;2023-07-20T02:02:20;93371.50;;;22.58;100.00
11345;BME280;5727;42.600;23.028;2023-07-20T02:04:47;93376.47;;;22.56;100.00
11345;BME280;5727;42.600;23.028;2023-07-20T02:07:15;93380.72;;;22.53;100.00
11345;BME280;5727;42.600;23.028;2023-07-20T02:09:42;93367.78;;;22.52;100.00
11345;BME280;5727;42.600;23.028;2023-07-20T02:12:09;93364.75;;;22.50;100.00
11345;BME280;5727;42.600;23.028;2023-07-20T02:14:36;93367.06;;;22.48;100.00
11345;BME280;5727;42.600;23.028;2023-07-20T02:17:03;93364.81;;;22.46;100.00
11345;BME280;5727;42.600;23.028;2023-07-20T02:19:30;93371.09;;;22.36;100.00
11345;BME280;5727;42.600;23.028;2023-07-20T02:21:56;93376.03;;;22.38;100.00
11345;BME280;5727;42.600;23.028;2023-07-20T02:24:25;93365.00;;;22.36;100.00
11345;BME280;5727;42.600;23.028;2023-07-20T02:26:51;93360.94;;;22.28;100.00
11345;BME280;5727;42.600;23.028;2023-07-20T02:29:18;93365.94;;;22.26;100.00
11345;BME280;5727;42.600;23.028;2023-07-20T02:31:45;93366.69;;;22.26;100.00
11345;BME280;5727;42.600;23.028;2023-07-20T02:34:12;93370.94;;;22.24;100.00
11345;BME280;5727;42.600;23.028;2023-07-20T02:36:38;93368.75;;;22.19;100.00
11345;BME280;5727;42.600;23.028;2023-07-20T02:39:07;93354.72;;;22.11;100.00
11345;BME280;5727;42.600;23.028;2023-07-20T02:41:36;93357.41;;;22.11;100.00
11345;BME280;5727;42.600;23.028;2023-07-20T02:44:02;93356.31;;;22.09;100.00
11345;BME280;5727;42.600;23.028;2023-07-20T02:46:29;93355.97;;;22.07;100.00
11345;BME280;5727;42.600;23.028;2023-07-20T02:48:56;93340.41;;;22.02;100.00
11345;BME280;5727;42.600;23.028;2023-07-20T02:51:23;93357.22;;;21.99;100.00
11345;BME280;5727;42.600;23.028;2023-07-20T02:53:50;93358.41;;;21.98;100.00
11345;BME280;5727;42.600;23.028;2023-07-20T02:56:16;93348.22;;;21.89;100.00
11345;BME280;5727;42.600;23.028;2023-07-20T02:58:44;93353.28;;;21.83;100.00
11345;BME280;5727;42.600;23.028;2023-07-20T03:01:12;93351.78;;;21.79;100.00
11345;BME280;5727;42.600;23.028;2023-07-20T03:03:40;93357.50;;;21.81;100.00
11345;BME280;5727;42.600;23.028;2023-07-20T03:06:07;93353.81;;;21.71;100.00
11345;BME280;5727;42.600;23.028;2023-07-20T03:08:35;93352.59;;;21.76;100.00
11345;BME280;5727;42.600;23.028;2023-07-20T03:11:02;93353.81;;;21.71;100.00
11345;BME280;5727;42.600;23.028;2023-07-20T03:13:28;93359.53;;;21.70;100.00
11345;BME280;5727;42.600;23.028;2023-07-20T03:15:57;93361.44;;;21.69;100.00
11345;BME280;5727;42.600;23.028;2023-07-20T03:18:23;93368.38;;;21.63;100.00
11345;BME280;5727;42.600;23.028;2023-07-20T03:20:50;93364.28;;;21.59;100.00
11345;BME280;5727;42.600;23.028;2023-07-20T03:23:17;93372.41;;;21.48;100.00
11345;BME280;5727;42.600;23.028;2023-07-20T03:25:44;93380.41;;;21.18;100.00
11345;BME280;5727;42.600;23.028;2023-07-20T03:28:10;93377.13;;;21.07;100.00
11345;BME280;5727;42.600;23.028;2023-07-20T03:30:55;93373.88;;;20.89;100.00
11345;BME280;5727;42.600;23.028;2023-07-20T03:33:25;93364.56;;;20.70;100.00
11345;BME280;5727;42.600;23.028;2023-07-20T03:35:52;93365.16;;;20.85;100.00
11345;BME280;5727;42.600;23.028;2023-07-20T03:38:19;93358.94;;;20.98;100.00
11345;BME280;5727;42.600;23.028;2023-07-20T03:40:49;93356.91;;;21.10;100.00
11345;BME280;5727;42.600;23.028;2023-07-20T03:43:16;93368.63;;;21.16;100.00
11345;BME280;5727;42.600;23.028;2023-07-20T03:45:43;93372.22;;;21.02;100.00
11345;BME280;5727;42.600;23.028;2023-07-20T03:48:10;93376.22;;;20.83;100.00
11345;BME280;5727;42.600;23.028;2023-07-20T03:50:39;93372.03;;;20.86;100.00
11345;BME280;5727;42.600;23.028;2023-07-20T03:53:05;93373.00;;;20.99;100.00
11345;BME280;5727;42.600;23.028;2023-07-20T03:55:32;93376.38;;;21.07;100.00
11345;BME280;5727;42.600;23.028;2023-07-20T03:57:59;93370.91;;;21.17;100.00
11345;BME280;5727;42.600;23.028;2023-07-20T04:00:25;93369.00;;;21.18;100.00
11345;BME280;5727;42.600;23.028;2023-07-20T04:02:52;93374.06;;;21.09;100.00
11345;BME280;5727;42.600;23.028;2023-07-20T04:05:19;93372.78;;;21.20;100.00
11345;BME280;5727;42.600;23.028;2023-07-20T04:07:47;93373.03;;;21.29;100.00
11345;BME280;5727;42.600;23.028;2023-07-20T04:10:14;93371.34;;;21.42;100.00
11345;BME280;5727;42.600;23.028;2023-07-20T04:12:41;93364.47;;;21.45;100.00
11345;BME280;5727;42.600;23.028;2023-07-20T04:15:09;93356.34;;;21.55;100.00
11345;BME280;5727;42.600;23.028;2023-07-20T04:17:36;93355.94;;;21.57;100.00
11345;BME280;5727;42.600;23.028;2023-07-20T04:20:04;93354.25;;;21.66;100.00
11345;BME280;5727;42.600;23.028;2023-07-20T04:22:31;93348.41;;;21.75;100.00
11345;BME280;5727;42.600;23.028;2023-07-20T04:24:59;93350.59;;;21.83;100.00
11345;BME280;5727;42.600;23.028;2023-07-20T04:27:26;93342.97;;;21.86;100.00
11345;BME280;5727;42.600;23.028;2023-07-20T04:29:53;93342.03;;;21.96;100.00
11345;BME280;5727;42.600;23.028;2023-07-20T04:32:19;93341.63;;;21.97;100.00
11345;BME280;5727;42.600;23.028;2023-07-20T04:34:46;93341.81;;;22.10;100.00
11345;BME280;5727;42.600;23.028;2023-07-20T04:37:13;93338.69;;;22.15;100.00
11345;BME280;5727;42.600;23.028;2023-07-20T04:39:40;93339.25;;;22.26;100.00
11345;BME280;5727;42.600;23.028;2023-07-20T04:42:08;93352.13;;;22.31;100.00
11345;BME280;5727;42.600;23.028;2023-07-20T04:44:34;93350.56;;;22.33;100.00
11345;BME280;5727;42.600;23.028;2023-07-20T04:47:01;93349.63;;;22.43;100.00
11345;BME280;5727;42.600;23.028;2023-07-20T04:49:28;93352.22;;;22.47;100.00
11345;BME280;5727;42.600;23.028;2023-07-20T04:51:55;93351.41;;;22.50;100.00
11345;BME280;5727;42.600;23.028;2023-07-20T04:54:25;93347.53;;;22.54;100.00
11345;BME280;5727;42.600;23.028;2023-07-20T04:56:52;93350.94;;;22.55;100.00
11345;BME280;5727;42.600;23.028;2023-07-20T04:59:20;93347.41;;;22.61;100.00
11345;BME280;5727;42.600;23.028;2023-07-20T05:01:47;93348.38;;;22.71;100.00
11345;BME280;5727;42.600;23.028;2023-07-20T05:04:13;93342.34;;;22.67;100.00
11345;BME280;5727;42.600;23.028;2023-07-20T05:06:40;93339.91;;;22.76;100.00
11345;BME280;5727;42.600;23.028;2023-07-20T05:09:08;93328.31;;;22.83;100.00
11345;BME280;5727;42.600;23.028;2023-07-20T05:11:35;93346.69;;;23.00;100.00
11345;BME280;5727;42.600;23.028;2023-07-20T05:14:02;93340.38;;;23.10;100.00
11345;BME280;5727;42.600;23.028;2023-07-20T05:16:30;93342.91;;;23.17;100.00
11345;BME280;5727;42.600;23.028;2023-07-20T05:18:56;93342.69;;;23.28;100.00
11345;BME280;5727;42.600;23.028;2023-07-20T05:21:23;93351.00;;;23.33;100.00
11345;BME280;5727;42.600;23.028;2023-07-20T05:23:50;93347.84;;;23.38;100.00
11345;BME280;5727;42.600;23.028;2023-07-20T05:26:17;93358.94;;;23.37;100.00
11345;BME280;5727;42.600;23.028;2023-07-20T05:28:44;93359.47;;;23.28;100.00
11345;BME280;5727;42.600;23.028;2023-07-20T05:31:10;93370.13;;;23.32;100.00
11345;BME280;5727;42.600;23.028;2023-07-20T05:33:38;93375.31;;;23.39;100.00
11345;BME280;5727;42.600;23.028;2023-07-20T05:36:27;93379.63;;;23.52;100.00
11345;BME280;5727;42.600;23.028;2023-07-20T05:38:53;93377.91;;;23.42;100.00
11345;BME280;5727;42.600;23.028;2023-07-20T05:41:20;93376.06;;;23.20;100.00
11345;BME280;5727;42.600;23.028;2023-07-20T05:43:47;93363.06;;;23.02;100.00
11345;BME280;5727;42.600;23.028;2023-07-20T05:46:14;93375.03;;;22.94;100.00
11345;BME280;5727;42.600;23.028;2023-07-20T05:48:43;93372.09;;;22.89;100.00
11345;BME280;5727;42.600;23.028;2023-07-20T05:51:09;93361.22;;;22.99;100.00
11345;BME280;5727;42.600;23.028;2023-07-20T05:53:36;93358.41;;;23.06;100.00
11345;BME280;5727;42.600;23.028;2023-07-20T05:56:03;93353.47;;;23.24;100.00
11345;BME280;5727;42.600;23.028;2023-07-20T05:58:30;93359.63;;;23.41;100.00
11345;BME280;5727;42.600;23.028;2023-07-20T06:00:57;93362.91;;;23.48;100.00
11345;BME280;5727;42.600;23.028;2023-07-20T06:03:24;93357.19;;;23.66;100.00
11345;BME280;5727;42.600;23.028;2023-07-20T06:05:52;93369.19;;;23.58;100.00
11345;BME280;5727;42.600;23.028;2023-07-20T06:08:19;93359.25;;;23.75;100.00
11345;BME280;5727;42.600;23.028;2023-07-20T06:10:49;93362.03;;;23.87;100.00
11345;BME280;5727;42.600;23.028;2023-07-20T06:13:17;93357.91;;;24.02;100.00
11345;BME280;5727;42.600;23.028;2023-07-20T06:15:44;93358.97;;;24.21;100.00
11345;BME280;5727;42.600;23.028;2023-07-20T06:18:11;93348.69;;;24.35;100.00
11345;BME280;5727;42.600;23.028;2023-07-20T06:20:37;93348.31;;;24.49;100.00
11345;BME280;5727;42.600;23.028;2023-07-20T06:23:06;93349.56;;;24.61;99.48
11345;BME280;5727;42.600;23.028;2023-07-20T06:25:32;93345.38;;;24.76;99.33
11345;BME280;5727;42.600;23.028;2023-07-20T06:27:59;93347.56;;;24.94;97.10
11345;BME280;5727;42.600;23.028;2023-07-20T06:30:26;93339.38;;;25.13;95.75
11345;BME280;5727;42.600;23.028;2023-07-20T06:32:53;93334.47;;;25.37;94.13
11345;BME280;5727;42.600;23.028;2023-07-20T06:35:20;93340.66;;;25.63;89.68
11345;BME280;5727;42.600;23.028;2023-07-20T06:37:48;93342.03;;;25.92;86.70
11345;BME280;5727;42.600;23.028;2023-07-20T06:40:17;93345.81;;;26.20;83.31
11345;BME280;5727;42.600;23.028;2023-07-20T06:42:44;93351.97;;;26.42;80.96
11345;BME280;5727;42.600;23.028;2023-07-20T06:45:10;93358.16;;;26.64;78.72
11345;BME280;5727;42.600;23.028;2023-07-20T06:47:38;93355.94;;;26.84;78.06
11345;BME280;5727;42.600;23.028;2023-07-20T06:50:06;93363.06;;;26.78;77.04
11345;BME280;5727;42.600;23.028;2023-07-20T06:52:32;93360.56;;;26.84;77.58
11345;BME280;5727;42.600;23.028;2023-07-20T06:54:59;93366.22;;;26.98;78.35
11345;BME280;5727;42.600;23.028;2023-07-20T06:57:27;93372.72;;;26.88;77.57
11345;BME280;5727;42.600;23.028;2023-07-20T06:59:54;93370.97;;;26.60;81.79
11345;BME280;5727;42.600;23.028;2023-07-20T07:02:21;93381.56;;;26.30;92.44
11345;BME280;5727;42.600;23.028;2023-07-20T07:04:47;93388.22;;;25.87;97.75
11345;BME280;5727;42.600;23.028;2023-07-20T07:07:14;93405.88;;;25.60;99.59
11345;BME280;5727;42.600;23.028;2023-07-20T07:09:41;93404.06;;;25.57;99.99
11345;BME280;5727;42.600;23.028;2023-07-20T07:12:08;93399.88;;;25.56;99.77
11345;BME280;5727;42.600;23.028;2023-07-20T07:14:36;93417.81;;;25.59;98.65
11345;BME280;5727;42.600;23.028;2023-07-20T07:17:03;93413.41;;;25.65;98.04
11345;BME280;5727;42.600;23.028;2023-07-20T07:19:30;93411.69;;;25.71;98.29
11345;BME280;5727;42.600;23.028;2023-07-20T07:21:57;93416.00;;;25.68;97.27
11345;BME280;5727;42.600;23.028;2023-07-20T07:24:24;93412.78;;;25.86;96.33
11345;BME280;5727;42.600;23.028;2023-07-20T07:26:51;93413.84;;;25.88;96.21
11345;BME280;5727;42.600;23.028;2023-07-20T07:29:18;93408.84;;;26.03;96.85
11345;BME280;5727;42.600;23.028;2023-07-20T07:31:46;93401.84;;;25.93;95.75
11345;BME280;5727;42.600;23.028;2023-07-20T07:34:13;93398.63;;;25.98;95.52
11345;BME280;5727;42.600;23.028;2023-07-20T07:36:39;93394.25;;;26.16;94.86
11345;BME280;5727;42.600;23.028;2023-07-20T07:39:06;93384.56;;;26.19;93.64
11345;BME280;5727;42.600;23.028;2023-07-20T07:41:33;93374.22;;;26.30;92.70
11345;BME280;5727;42.600;23.028;2023-07-20T07:43:59;93375.38;;;26.42;89.53
11345;BME280;5727;42.600;23.028;2023-07-20T07:46:26;93380.88;;;26.51;87.30
11345;BME280;5727;42.600;23.028;2023-07-20T07:48:54;93391.50;;;26.54;82.17
11345;BME280;5727;42.600;23.028;2023-07-20T07:51:21;93382.13;;;26.71;75.81
11345;BME280;5727;42.600;23.028;2023-07-20T07:53:48;93379.28;;;26.87;75.45
11345;BME280;5727;42.600;23.028;2023-07-20T07:56:15;93391.41;;;26.92;81.85
11345;BME280;5727;42.600;23.028;2023-07-20T07:58:42;93398.22;;;27.05;84.52
11345;BME280;5727;42.600;23.028;2023-07-20T08:01:09;93411.22;;;27.07;82.49
11345;BME280;5727;42.600;23.028;2023-07-20T08:03:36;93427.00;;;26.96;80.55
11345;BME280;5727;42.600;23.028;2023-07-20T08:06:04;93435.78;;;26.50;79.20
11345;BME280;5727;42.600;23.028;2023-07-20T08:08:31;93429.13;;;26.54;84.24
11345;BME280;5727;42.600;23.028;2023-07-20T08:10:58;93436.84;;;26.52;85.79
11345;BME280;5727;42.600;23.028;2023-07-20T08:13:25;93423.50;;;26.61;87.18
11345;BME280;5727;42.600;23.028;2023-07-20T08:15:52;93420.59;;;26.81;87.13
11345;BME280;5727;42.600;23.028;2023-07-20T08:18:19;93396.47;;;26.90;87.04
11345;BME280;5727;42.600;23.028;2023-07-20T08:20:47;93408.66;;;27.03;86.71
11345;BME280;5727;42.600;23.028;2023-07-20T08:23:16;93401.50;;;27.00;87.73
11345;BME280;5727;42.600;23.028;2023-07-20T08:25:42;93426.75;;;27.03;86.20
11345;BME280;5727;42.600;23.028;2023-07-20T08:28:10;93424.66;;;26.85;87.45
11345;BME280;5727;42.600;23.028;2023-07-20T08:30:41;93423.16;;;26.84;89.16
11345;BME280;5727;42.600;23.028;2023-07-20T08:33:09;93439.06;;;26.91;88.95
11345;BME280;5727;42.600;23.028;2023-07-20T08:35:35;93456.53;;;27.08;84.89
11345;BME280;5727;42.600;23.028;2023-07-20T08:38:02;93459.31;;;26.71;76.18
11345;BME280;5727;42.600;23.028;2023-07-20T08:40:31;93439.34;;;26.47;77.40
11345;BME280;5727;42.600;23.028;2023-07-20T08:42:59;93434.13;;;26.65;76.13
11345;BME280;5727;42.600;23.028;2023-07-20T08:45:27;93425.84;;;26.84;74.08
11345;BME280;5727;42.600;23.028;2023-07-20T08:47:55;93427.44;;;26.82;70.07
11345;BME280;5727;42.600;23.028;2023-07-20T08:50:22;93419.50;;;26.78;71.37
11345;BME280;5727;42.600;23.028;2023-07-20T08:52:52;93409.69;;;26.97;71.78
11345;BME280;5727;42.600;23.028;2023-07-20T08:55:19;93411.44;;;27.12;69.07
11345;BME280;5727;42.600;23.028;2023-07-20T08:57:49;93411.97;;;27.20;70.77
11345;BME280;5727;42.600;23.028;2023-07-20T09:00:18;93409.44;;;27.04;69.90
11345;BME280;5727;42.600;23.028;2023-07-20T09:02:45;93407.88;;;27.15;71.97
11345;BME280;5727;42.600;23.028;2023-07-20T09:05:12;93414.25;;;27.31;69.13
11345;BME280;5727;42.600;23.028;2023-07-20T09:07:40;93414.25;;;27.31;67.23
11345;BME280;5727;42.600;23.028;2023-07-20T09:10:07;93398.81;;;27.44;65.18
11345;BME280;5727;42.600;23.028;2023-07-20T09:12:35;93390.56;;;27.60;66.68
11345;BME280;5727;42.600;23.028;2023-07-20T09:15:05;93403.97;;;27.51;64.37
11345;BME280;5727;42.600;23.028;2023-07-20T09:17:32;93408.41;;;27.66;64.31
11345;BME280;5727;42.600;23.028;2023-07-20T09:20:02;93409.25;;;27.63;66.40
11345;BME280;5727;42.600;23.028;2023-07-20T09:22:36;93402.75;;;27.73;66.29
11345;BME280;5727;42.600;23.028;2023-07-20T09:25:06;93400.88;;;27.92;66.84
11345;BME280;5727;42.600;23.028;2023-07-20T09:27:38;93391.72;;;27.89;63.96
11345;BME280;5727;42.600;23.028;2023-07-20T09:30:07;93395.47;;;27.83;66.25
11345;BME280;5727;42.600;23.028;2023-07-20T09:32:40;93393.44;;;27.96;65.50
11345;BME280;5727;42.600;23.028;2023-07-20T09:35:12;93398.16;;;28.14;64.62
11345;BME280;5727;42.600;23.028;2023-07-20T09:37:40;93396.00;;;28.39;61.49
11345;BME280;5727;42.600;23.028;2023-07-20T09:40:07;93392.72;;;28.53;58.36
11345;BME280;5727;42.600;23.028;2023-07-20T09:42:36;93400.13;;;28.80;58.28
11345;BME280;5727;42.600;23.028;2023-07-20T09:45:08;93396.13;;;29.39;56.15
11345;BME280;5727;42.600;23.028;2023-07-20T09:47:36;93380.72;;;29.90;52.15
11345;BME280;5727;42.600;23.028;2023-07-20T09:50:05;93372.22;;;30.15;50.31
11345;BME280;5727;42.600;23.028;2023-07-20T09:52:37;93377.19;;;30.08;49.41
11345;BME280;5727;42.600;23.028;2023-07-20T09:55:05;93372.16;;;30.24;49.26
11345;BME280;5727;42.600;23.028;2023-07-20T09:57:33;93369.16;;;30.22;49.75
11345;BME280;5727;42.600;23.028;2023-07-20T09:59:59;93379.44;;;30.09;49.65
11345;BME280;5727;42.600;23.028;2023-07-20T10:02:32;93376.06;;;30.23;47.21
11345;BME280;5727;42.600;23.028;2023-07-20T10:05:02;93374.38;;;30.02;48.42
11345;BME280;5727;42.600;23.028;2023-07-20T10:07:30;93390.06;;;30.22;47.21
11345;BME280;5727;42.600;23.028;2023-07-20T10:09:59;93389.97;;;30.40;47.61
11345;BME280;5727;42.600;23.028;2023-07-20T10:12:29;93396.16;;;30.64;46.28
11345;BME280;5727;42.600;23.028;2023-07-20T10:15:07;93401.63;;;31.02;45.38
11345;BME280;5727;42.600;23.028;2023-07-20T10:17:44;93395.59;;;31.22;44.96
11345;BME280;5727;42.600;23.028;2023-07-20T10:20:16;93386.19;;;30.94;44.35
11345;BME280;5727;42.600;23.028;2023-07-20T10:22:47;93383.69;;;30.90;46.36
11345;BME280;5727;42.600;23.028;2023-07-20T10:25:15;93389.06;;;31.14;45.21
11345;BME280;5727;42.600;23.028;2023-07-20T10:27:43;93374.91;;;30.95;46.98
11345;BME280;5727;42.600;23.028;2023-07-20T10:30:10;93357.25;;;30.61;47.66
11345;BME280;5727;42.600;23.028;2023-07-20T10:32:39;93350.31;;;30.70;48.53
11345;BME280;5727;42.600;23.028;2023-07-20T10:35:12;93343.53;;;31.27;48.28
11345;BME280;5727;42.600;23.028;2023-07-20T10:37:50;93337.75;;;31.78;46.66
11345;BME280;5727;42.600;23.028;2023-07-20T10:40:28;93348.09;;;32.08;45.76
11345;BME280;5727;42.600;23.028;2023-07-20T10:43:00;93352.09;;;32.27;44.27
11345;BME280;5727;42.600;23.028;2023-07-20T10:45:37;93342.31;;;32.01;43.73
11345;BME280;5727;42.600;23.028;2023-07-20T10:48:13;93326.47;;;32.28;44.32
11345;BME280;5727;42.600;23.028;2023-07-20T10:50:41;93298.72;;;32.54;42.43
11345;BME280;5727;42.600;23.028;2023-07-20T10:53:12;93294.66;;;32.64;41.57
11345;BME280;5727;42.600;23.028;2023-07-20T10:55:39;93304.88;;;32.54;41.42
11345;BME280;5727;42.600;23.028;2023-07-20T10:58:08;93302.84;;;32.69;41.01
11345;BME280;5727;42.600;23.028;2023-07-20T11:00:37;93300.72;;;32.59;41.60
11345;BME280;5727;42.600;23.028;2023-07-20T11:03:04;93311.44;;;32.27;39.47
11345;BME280;5727;42.600;23.028;2023-07-20T11:05:39;93312.47;;;31.51;42.12
11345;BME280;5727;42.600;23.028;2023-07-20T11:08:09;93308.84;;;31.40;43.11
11345;BME280;5727;42.600;23.028;2023-07-20T11:10:36;93300.59;;;31.49;42.92
11345;BME280;5727;42.600;23.028;2023-07-20T11:13:19;93301.47;;;31.40;44.74
11345;BME280;5727;42.600;23.028;2023-07-20T11:16:02;93309.31;;;31.38;44.44
11345;BME280;5727;42.600;23.028;2023-07-20T11:18:29;93301.63;;;31.22;45.25
11345;BME280;5727;42.600;23.028;2023-07-20T11:20:59;93307.03;;;31.22;46.88
11345;BME280;5727;42.600;23.028;2023-07-20T11:23:26;93299.75;;;31.14;46.88
11345;BME280;5727;42.600;23.028;2023-07-20T11:25:52;93303.47;;;31.02;45.58
11345;BME280;5727;42.600;23.028;2023-07-20T11:28:19;93293.22;;;31.06;47.40
11345;BME280;5727;42.600;23.028;2023-07-20T11:30:51;93293.97;;;31.21;46.05
11345;BME280;5727;42.600;23.028;2023-07-20T11:33:18;93284.09;;;31.18;45.63
11345;BME280;5727;42.600;23.028;2023-07-20T11:35:46;93278.19;;;31.05;46.48
11345;BME280;5727;42.600;23.028;2023-07-20T11:38:14;93277.28;;;31.37;44.55
11345;BME280;5727;42.600;23.028;2023-07-20T11:40:43;93272.13;;;32.03;44.04
11345;BME280;5727;42.600;23.028;2023-07-20T11:43:11;93257.56;;;33.52;40.33
11345;BME280;5727;42.600;23.028;2023-07-20T11:45:38;93263.59;;;36.05;33.67
11345;BME280;5727;42.600;23.028;2023-07-20T11:48:05;93262.16;;;38.67;29.44
11345;BME280;5727;42.600;23.028;2023-07-20T11:50:32;93263.84;;;39.25;27.96
11345;BME280;5727;42.600;23.028;2023-07-20T11:53:04;93259.28;;;39.15;27.40
11345;BME280;5727;42.600;23.028;2023-07-20T11:55:32;93246.31;;;40.24;25.24
11345;BME280;5727;42.600;23.028;2023-07-20T11:58:03;93256.88;;;41.86;23.99
11345;BME280;5727;42.600;23.028;2023-07-20T12:00:30;93250.69;;;41.93;23.36
11345;BME280;5727;42.600;23.028;2023-07-20T12:02:57;93254.97;;;41.81;23.84
11345;BME280;5727;42.600;23.028;2023-07-20T12:05:24;93249.88;;;40.97;23.17
11345;BME280;5727;42.600;23.028;2023-07-20T12:07:51;93237.97;;;40.16;25.06
11345;BME280;5727;42.600;23.028;2023-07-20T12:10:24;93245.38;;;40.21;25.52
11345;BME280;5727;42.600;23.028;2023-07-20T12:12:52;93235.13;;;39.64;25.19
11345;BME280;5727;42.600;23.028;2023-07-20T12:15:23;93235.75;;;40.01;24.98
11345;BME280;5727;42.600;23.028;2023-07-20T12:17:52;93239.66;;;41.52;23.09
11345;BME280;5727;42.600;23.028;2023-07-20T12:20:26;93241.44;;;41.83;22.42
11345;BME280;5727;42.600;23.028;2023-07-20T12:22:56;93235.31;;;41.36;23.18
11345;BME280;5727;42.600;23.028;2023-07-20T12:25:23;93224.66;;;40.85;23.53
11345;BME280;5727;42.600;23.028;2023-07-20T12:27:51;93225.13;;;40.63;23.44
11345;BME280;5727;42.600;23.028;2023-07-20T12:30:18;93225.31;;;41.46;23.36
11345;BME280;5727;42.600;23.028;2023-07-20T12:32:45;93223.56;;;42.46;22.31
11345;BME280;5727;42.600;23.028;2023-07-20T12:35:11;93219.28;;;42.81;21.44
11345;BME280;5727;42.600;23.028;2023-07-20T12:37:39;93219.75;;;41.59;21.73
11345;BME280;5727;42.600;23.028;2023-07-20T12:40:08;93224.28;;;40.55;22.86
11345;BME280;5727;42.600;23.028;2023-07-20T12:42:36;93220.50;;;39.87;23.48
11345;BME280;5727;42.600;23.028;2023-07-20T12:45:07;93222.13;;;38.82;24.31
11345;BME280;5727;42.600;23.028;2023-07-20T12:47:33;93208.84;;;38.68;24.74
11345;BME280;5727;42.600;23.028;2023-07-20T12:50:00;93212.84;;;38.24;25.30
11345;BME280;5727;42.600;23.028;2023-07-20T12:52:29;93213.59;;;38.67;24.24
11345;BME280;5727;42.600;23.028;2023-07-20T12:54:56;93218.88;;;37.93;24.49
11345;BME280;5727;42.600;23.028;2023-07-20T12:57:24;93213.66;;;38.62;24.13
11345;BME280;5727;42.600;23.028;2023-07-20T12:59:50;93204.91;;;39.00;23.14
11345;BME280;5727;42.600;23.028;2023-07-20T13:02:18;93197.72;;;39.35;23.33